sensor_id;sensor_type;location;lat;lon;timestamp;pressure;altitude;pressure_sealevel;temperature;humidity
39455;BME280;25155;41.890;23.446;2022-08-21T00:01:46;91464.47;;;19.11;64.31
39455;BME280;25155;41.890;23.446;2022-08-21T00:04:13;91450.47;;;19.11;64.56
39455;BME280;25155;41.890;23.446;2022-08-21T00:06:41;91459.50;;;19.10;64.64
39455;BME280;25155;41.890;23.446;2022-08-21T00:09:09;91461.25;;;19.06;64.71
39455;BME280;25155;41.890;23.446;2022-08-21T00:11:39;91461.47;;;19.01;64.63
39455;BME280;25155;41.890;23.446;2022-08-21T00:14:08;91474.03;;;19.04;64.49
39455;BME280;25155;41.890;23.446;2022-08-21T00:16:36;91473.25;;;19.03;64.22
39455;BME280;25155;41.890;23.446;2022-08-21T00:19:05;91480.19;;;19.08;64.31
39455;BME280;25155;41.890;23.446;2022-08-21T00:21:32;91476.91;;;19.11;64.87
39455;BME280;25155;41.890;23.446;2022-08-21T00:24:00;91475.34;;;19.10;64.44
39455;BME280;25155;41.890;23.446;2022-08-21T00:26:27;91471.19;;;19.09;64.23
39455;BME280;25155;41.890;23.446;2022-08-21T00:28:57;91466.34;;;19.11;64.27
39455;BME280;25155;41.890;23.446;2022-08-21T00:31:24;91463.38;;;19.12;64.09
39455;BME280;25155;41.890;23.446;2022-08-21T00:33:51;91470.97;;;19.14;64.33
39455;BME280;25155;41.890;23.446;2022-08-21T00:36:19;91469.22;;;19.18;64.23
39455;BME280;25155;41.890;23.446;2022-08-21T00:38:46;91471.41;;;19.16;64.02
39455;BME280;25155;41.890;23.446;2022-08-21T00:41:13;91477.59;;;19.20;64.07
39455;BME280;25155;41.890;23.446;2022-08-21T00:43:41;91474.97;;;19.20;64.08
39455;BME280;25155;41.890;23.446;2022-08-21T00:46:10;91476.81;;;19.20;64.43
39455;BME280;25155;41.890;23.446;2022-08-21T00:48:38;91468.13;;;19.19;64.33
39455;BME280;25155;41.890;23.446;2022-08-21T00:51:08;91479.78;;;19.18;64.21
39455;BME280;25155;41.890;23.446;2022-08-21T00:53:39;91480.91;;;19.17;64.15
39455;BME280;25155;41.890;23.446;2022-08-21T00:56:09;91493.09;;;19.09;63.85
39455;BME280;25155;41.890;23.446;2022-08-21T00:58:39;91512.34;;;19.10;64.53
39455;BME280;25155;41.890;23.446;2022-08-21T01:01:10;91506.63;;;19.08;64.05
39455;BME280;25155;41.890;23.446;2022-08-21T01:03:37;91509.28;;;19.08;64.36
39455;BME280;25155;41.890;23.446;2022-08-21T01:06:06;91503.22;;;19.07;64.64
39455;BME280;25155;41.890;23.446;2022-08-21T01:08:34;91513.03;;;19.07;64.39
39455;BME280;25155;41.890;23.446;2022-08-21T01:11:02;91522.81;;;19.06;64.22
39455;BME280;25155;41.890;23.446;2022-08-21T01:13:31;91518.97;;;19.04;64.64
39455;BME280;25155;41.890;23.446;2022-08-21T01:16:01;91510.13;;;18.99;64.61
39455;BME280;25155;41.890;23.446;2022-08-21T01:18:31;91491.94;;;18.98;64.67
39455;BME280;25155;41.890;23.446;2022-08-21T01:21:06;91493.19;;;19.01;64.96
39455;BME280;25155;41.890;23.446;2022-08-21T01:23:34;91497.38;;;19.02;65.51
39455;BME280;25155;41.890;23.446;2022-08-21T01:26:02;91490.22;;;19.02;65.84
39455;BME280;25155;41.890;23.446;2022-08-21T01:28:34;91488.66;;;19.01;65.33
39455;BME280;25155;41.890;23.446;2022-08-21T01:31:06;91490.09;;;18.98;65.79
39455;BME280;25155;41.890;23.446;2022-08-21T01:33:34;91488.88;;;18.96;66.28
39455;BME280;25155;41.890;23.446;2022-08-21T01:36:04;91481.66;;;18.84;67.39
39455;BME280;25155;41.890;23.446;2022-08-21T01:38:32;91475.72;;;18.87;66.73
39455;BME280;25155;41.890;23.446;2022-08-21T01:40:59;91484.88;;;18.90;66.76
39455;BME280;25155;41.890;23.446;2022-08-21T01:43:27;91467.97;;;18.82;66.58
39455;BME280;25155;41.890;23.446;2022-08-21T01:45:54;91476.81;;;18.86;66.23
39455;BME280;25155;41.890;23.446;2022-08-21T01:48:22;91482.91;;;18.87;66.83
39455;BME280;25155;41.890;23.446;2022-08-21T01:50:50;91484.91;;;18.81;68.40
39455;BME280;25155;41.890;23.446;2022-08-21T01:53:19;91488.66;;;18.80;67.97
39455;BME280;25155;41.890;23.446;2022-08-21T01:55:46;91484.59;;;18.83;67.40
39455;BME280;25155;41.890;23.446;2022-08-21T01:58:14;91483.53;;;18.84;67.12
39455;BME280;25155;41.890;23.446;2022-08-21T02:00:41;91483.22;;;18.85;67.40
39455;BME280;25155;41.890;23.446;2022-08-21T02:03:09;91476.38;;;18.84;66.87
39455;BME280;25155;41.890;23.446;2022-08-21T02:05:36;91472.19;;;18.83;66.47
39455;BME280;25155;41.890;23.446;2022-08-21T02:08:06;91464.88;;;18.80;66.67
39455;BME280;25155;41.890;23.446;2022-08-21T02:10:35;91468.91;;;18.86;66.55
39455;BME280;25155;41.890;23.446;2022-08-21T02:13:03;91481.47;;;18.89;66.66
39455;BME280;25155;41.890;23.446;2022-08-21T02:15:30;91487.19;;;18.91;66.21
39455;BME280;25155;41.890;23.446;2022-08-21T02:18:00;91482.09;;;18.86;67.37
39455;BME280;25155;41.890;23.446;2022-08-21T02:20:31;91489.75;;;18.79;67.72
39455;BME280;25155;41.890;23.446;2022-08-21T02:23:00;91493.16;;;18.79;67.40
39455;BME280;25155;41.890;23.446;2022-08-21T02:25:28;91492.84;;;18.81;67.24
39455;BME280;25155;41.890;23.446;2022-08-21T02:27:58;91487.44;;;18.77;67.40
39455;BME280;25155;41.890;23.446;2022-08-21T02:30:30;91466.94;;;18.74;67.05
39455;BME280;25155;41.890;23.446;2022-08-21T02:32:57;91475.63;;;18.84;67.65
39455;BME280;25155;41.890;23.446;2022-08-21T02:35:25;91473.41;;;18.86;66.96
39455;BME280;25155;41.890;23.446;2022-08-21T02:37:55;91474.19;;;18.86;66.81
39455;BME280;25155;41.890;23.446;2022-08-21T02:40:25;91461.28;;;18.85;67.06
39455;BME280;25155;41.890;23.446;2022-08-21T02:42:54;91464.06;;;18.88;66.71
39455;BME280;25155;41.890;23.446;2022-08-21T02:45:23;91464.06;;;18.88;67.16
39455;BME280;25155;41.890;23.446;2022-08-21T02:47:52;91472.44;;;18.90;67.00
39455;BME280;25155;41.890;23.446;2022-08-21T02:50:22;91454.16;;;18.85;66.62
39455;BME280;25155;41.890;23.446;2022-08-21T02:52:50;91470.88;;;18.89;66.51
39455;BME280;25155;41.890;23.446;2022-08-21T02:55:20;91476.09;;;18.77;69.32
39455;BME280;25155;41.890;23.446;2022-08-21T02:57:48;91470.94;;;18.59;70.74
39455;BME280;25155;41.890;23.446;2022-08-21T03:00:16;91467.44;;;18.55;70.60
39455;BME280;25155;41.890;23.446;2022-08-21T03:02:45;91478.94;;;18.51;71.04
39455;BME280;25155;41.890;23.446;2022-08-21T03:05:13;91469.91;;;18.52;70.54
39455;BME280;25155;41.890;23.446;2022-08-21T03:07:41;91473.16;;;18.57;70.10
39455;BME280;25155;41.890;23.446;2022-08-21T03:10:09;91477.78;;;18.60;69.92
39455;BME280;25155;41.890;23.446;2022-08-21T03:12:36;91473.78;;;18.54;71.34
39455;BME280;25155;41.890;23.446;2022-08-21T03:15:05;91485.00;;;18.51;70.92
39455;BME280;25155;41.890;23.446;2022-08-21T03:17:33;91484.22;;;18.51;71.01
39455;BME280;25155;41.890;23.446;2022-08-21T03:20:03;91486.56;;;18.52;70.63
39455;BME280;25155;41.890;23.446;2022-08-21T03:22:31;91490.28;;;18.51;70.55
39455;BME280;25155;41.890;23.446;2022-08-21T03:24:59;91476.00;;;18.52;70.59
39455;BME280;25155;41.890;23.446;2022-08-21T03:27:27;91478.88;;;18.59;70.11
39455;BME280;25155;41.890;23.446;2022-08-21T03:29:56;91493.00;;;18.63;69.98
39455;BME280;25155;41.890;23.446;2022-08-21T03:32:24;91503.56;;;18.63;70.40
39455;BME280;25155;41.890;23.446;2022-08-21T03:34:51;91502.13;;;18.66;70.14
39455;BME280;25155;41.890;23.446;2022-08-21T03:37:20;91505.09;;;18.65;69.75
39455;BME280;25155;41.890;23.446;2022-08-21T03:39:47;91496.53;;;18.68;69.18
39455;BME280;25155;41.890;23.446;2022-08-21T03:42:14;91491.69;;;18.70;69.11
39455;BME280;25155;41.890;23.446;2022-08-21T03:44:42;91496.22;;;18.69;69.39
39455;BME280;25155;41.890;23.446;2022-08-21T03:47:09;91512.81;;;18.70;69.77
39455;BME280;25155;41.890;23.446;2022-08-21T03:49:37;91515.34;;;18.66;69.48
39455;BME280;25155;41.890;23.446;2022-08-21T03:52:05;91509.59;;;18.64;69.69
39455;BME280;25155;41.890;23.446;2022-08-21T03:54:34;91508.38;;;18.61;69.59
39455;BME280;25155;41.890;23.446;2022-08-21T03:57:03;91492.84;;;18.60;69.21
39455;BME280;25155;41.890;23.446;2022-08-21T03:59:30;91489.38;;;18.68;68.93
39455;BME280;25155;41.890;23.446;2022-08-21T04:02:01;91482.56;;;18.67;69.03
39455;BME280;25155;41.890;23.446;2022-08-21T04:04:29;91501.50;;;18.69;68.74
39455;BME280;25155;41.890;23.446;2022-08-21T04:06:58;91517.47;;;18.73;68.53
39455;BME280;25155;41.890;23.446;2022-08-21T04:09:25;91501.44;;;18.57;71.48
39455;BME280;25155;41.890;23.446;2022-08-21T04:11:54;91513.34;;;18.42;72.73
39455;BME280;25155;41.890;23.446;2022-08-21T04:14:22;91523.63;;;18.35;72.90
39455;BME280;25155;41.890;23.446;2022-08-21T04:16:49;91515.63;;;18.22;73.64
39455;BME280;25155;41.890;23.446;2022-08-21T04:19:17;91513.63;;;18.19;73.64
39455;BME280;25155;41.890;23.446;2022-08-21T04:21:44;91514.25;;;18.16;74.79
39455;BME280;25155;41.890;23.446;2022-08-21T04:24:11;91519.72;;;18.11;75.09
39455;BME280;25155;41.890;23.446;2022-08-21T04:26:39;91519.28;;;18.09;74.62
39455;BME280;25155;41.890;23.446;2022-08-21T04:29:08;91515.66;;;18.14;74.51
39455;BME280;25155;41.890;23.446;2022-08-21T04:31:36;91513.44;;;18.24;73.59
39455;BME280;25155;41.890;23.446;2022-08-21T04:34:04;91514.81;;;18.31;73.18
39455;BME280;25155;41.890;23.446;2022-08-21T04:36:31;91517.94;;;18.24;74.34
39455;BME280;25155;41.890;23.446;2022-08-21T04:38:59;91519.09;;;18.14;74.96
39455;BME280;25155;41.890;23.446;2022-08-21T04:41:27;91515.41;;;18.06;75.10
39455;BME280;25155;41.890;23.446;2022-08-21T04:43:55;91517.53;;;18.13;74.55
39455;BME280;25155;41.890;23.446;2022-08-21T04:46:24;91527.44;;;18.16;74.74
39455;BME280;25155;41.890;23.446;2022-08-21T04:48:51;91530.09;;;18.16;75.01
39455;BME280;25155;41.890;23.446;2022-08-21T04:51:21;91529.34;;;18.07;76.05
39455;BME280;25155;41.890;23.446;2022-08-21T04:53:52;91530.47;;;17.97;76.50
39455;BME280;25155;41.890;23.446;2022-08-21T04:56:24;91527.88;;;17.88;77.15
39455;BME280;25155;41.890;23.446;2022-08-21T04:58:53;91531.13;;;17.85;76.72
39455;BME280;25155;41.890;23.446;2022-08-21T05:01:25;91534.09;;;17.93;76.18
39455;BME280;25155;41.890;23.446;2022-08-21T05:03:56;91531.84;;;18.03;75.50
39455;BME280;25155;41.890;23.446;2022-08-21T05:06:25;91539.31;;;18.01;75.37
39455;BME280;25155;41.890;23.446;2022-08-21T05:08:56;91538.56;;;18.01;75.51
39455;BME280;25155;41.890;23.446;2022-08-21T05:11:24;91537.44;;;18.02;75.54
39455;BME280;25155;41.890;23.446;2022-08-21T05:13:52;91537.28;;;18.07;75.66
39455;BME280;25155;41.890;23.446;2022-08-21T05:16:19;91530.59;;;18.10;75.53
39455;BME280;25155;41.890;23.446;2022-08-21T05:18:49;91527.31;;;18.13;75.28
39455;BME280;25155;41.890;23.446;2022-08-21T05:21:16;91517.34;;;18.18;74.57
39455;BME280;25155;41.890;23.446;2022-08-21T05:23:44;91515.00;;;18.25;74.43
39455;BME280;25155;41.890;23.446;2022-08-21T05:26:12;91514.94;;;18.34;73.60
39455;BME280;25155;41.890;23.446;2022-08-21T05:28:39;91510.22;;;18.40;73.64
39455;BME280;25155;41.890;23.446;2022-08-21T05:31:06;91514.69;;;18.48;73.33
39455;BME280;25155;41.890;23.446;2022-08-21T05:33:33;91505.81;;;18.53;72.77
39455;BME280;25155;41.890;23.446;2022-08-21T05:36:03;91500.66;;;18.56;72.21
39455;BME280;25155;41.890;23.446;2022-08-21T05:38:30;91498.78;;;18.57;73.44
39455;BME280;25155;41.890;23.446;2022-08-21T05:40:58;91511.41;;;18.51;73.52
39455;BME280;25155;41.890;23.446;2022-08-21T05:43:25;91505.22;;;18.47;73.60
39455;BME280;25155;41.890;23.446;2022-08-21T05:45:52;91503.69;;;18.46;73.35
39455;BME280;25155;41.890;23.446;2022-08-21T05:48:22;91506.75;;;18.48;73.10
39455;BME280;25155;41.890;23.446;2022-08-21T05:50:51;91501.66;;;18.43;73.95
39455;BME280;25155;41.890;23.446;2022-08-21T05:53:21;91502.44;;;18.22;75.21
39455;BME280;25155;41.890;23.446;2022-08-21T05:55:49;91504.16;;;18.18;76.11
39455;BME280;25155;41.890;23.446;2022-08-21T05:58:18;91491.59;;;18.15;75.83
39455;BME280;25155;41.890;23.446;2022-08-21T06:00:48;91497.16;;;18.22;75.35
39455;BME280;25155;41.890;23.446;2022-08-21T06:03:18;91485.78;;;18.31;74.99
39455;BME280;25155;41.890;23.446;2022-08-21T06:05:47;91489.09;;;18.40;75.07
39455;BME280;25155;41.890;23.446;2022-08-21T06:08:16;91494.19;;;18.45;75.04
39455;BME280;25155;41.890;23.446;2022-08-21T06:10:48;91491.72;;;18.49;75.25
39455;BME280;25155;41.890;23.446;2022-08-21T06:13:17;91493.44;;;18.44;75.44
39455;BME280;25155;41.890;23.446;2022-08-21T06:15:45;91495.63;;;18.42;75.76
39455;BME280;25155;41.890;23.446;2022-08-21T06:18:13;91484.75;;;18.44;75.42
39455;BME280;25155;41.890;23.446;2022-08-21T06:20:40;91488.72;;;18.50;75.24
39455;BME280;25155;41.890;23.446;2022-08-21T06:23:08;91495.81;;;18.58;74.75
39455;BME280;25155;41.890;23.446;2022-08-21T06:25:36;91486.81;;;18.59;74.61
39455;BME280;25155;41.890;23.446;2022-08-21T06:28:07;91485.72;;;18.60;74.59
39455;BME280;25155;41.890;23.446;2022-08-21T06:30:37;91491.56;;;18.66;74.83
39455;BME280;25155;41.890;23.446;2022-08-21T06:33:05;91496.53;;;18.68;74.25
39455;BME280;25155;41.890;23.446;2022-08-21T06:35:34;91492.81;;;18.69;74.21
39455;BME280;25155;41.890;23.446;2022-08-21T06:38:02;91485.88;;;18.76;74.07
39455;BME280;25155;41.890;23.446;2022-08-21T06:40:32;91489.59;;;18.84;73.58
39455;BME280;25155;41.890;23.446;2022-08-21T06:43:08;91484.53;;;18.91;73.53
39455;BME280;25155;41.890;23.446;2022-08-21T06:45:37;91483.03;;;19.03;72.99
39455;BME280;25155;41.890;23.446;2022-08-21T06:48:05;91484.06;;;19.10;73.00
39455;BME280;25155;41.890;23.446;2022-08-21T06:50:34;91483.66;;;19.21;72.86
39455;BME280;25155;41.890;23.446;2022-08-21T06:53:04;91473.09;;;19.21;73.30
39455;BME280;25155;41.890;23.446;2022-08-21T06:55:32;91477.50;;;19.29;73.09
39455;BME280;25155;41.890;23.446;2022-08-21T06:58:00;91472.59;;;19.40;72.48
39455;BME280;25155;41.890;23.446;2022-08-21T07:00:30;91471.84;;;19.51;72.34
39455;BME280;25155;41.890;23.446;2022-08-21T07:02:58;91476.81;;;19.65;72.62
39455;BME280;25155;41.890;23.446;2022-08-21T07:05:26;91474.19;;;19.78;71.94
39455;BME280;25155;41.890;23.446;2022-08-21T07:07:54;91470.78;;;19.89;72.28
39455;BME280;25155;41.890;23.446;2022-08-21T07:10:22;91458.84;;;19.96;72.78
39455;BME280;25155;41.890;23.446;2022-08-21T07:12:50;91456.31;;;20.12;73.86
39455;BME280;25155;41.890;23.446;2022-08-21T07:15:18;91459.72;;;20.24;74.54
39455;BME280;25155;41.890;23.446;2022-08-21T07:17:47;91471.50;;;20.39;74.48
39455;BME280;25155;41.890;23.446;2022-08-21T07:20:14;91458.47;;;20.46;71.60
39455;BME280;25155;41.890;23.446;2022-08-21T07:22:42;91454.81;;;20.51;71.26
39455;BME280;25155;41.890;23.446;2022-08-21T07:25:10;91457.56;;;20.55;70.95
39455;BME280;25155;41.890;23.446;2022-08-21T07:27:38;91463.53;;;20.64;70.13
39455;BME280;25155;41.890;23.446;2022-08-21T07:30:07;91459.84;;;20.69;68.82
39455;BME280;25155;41.890;23.446;2022-08-21T07:32:35;91466.81;;;20.73;68.94
39455;BME280;25155;41.890;23.446;2022-08-21T07:35:05;91464.50;;;20.72;68.53
39455;BME280;25155;41.890;23.446;2022-08-21T07:37:33;91465.84;;;20.66;68.27
39455;BME280;25155;41.890;23.446;2022-08-21T07:40:01;91455.44;;;20.60;67.67
39455;BME280;25155;41.890;23.446;2022-08-21T07:42:28;91455.25;;;20.66;67.92
39455;BME280;25155;41.890;23.446;2022-08-21T07:44:56;91453.56;;;20.73;68.35
39455;BME280;25155;41.890;23.446;2022-08-21T07:47:23;91465.03;;;20.77;67.22
39455;BME280;25155;41.890;23.446;2022-08-21T07:49:51;91457.34;;;20.72;66.31
39455;BME280;25155;41.890;23.446;2022-08-21T07:52:20;91462.50;;;20.69;65.62
39455;BME280;25155;41.890;23.446;2022-08-21T07:54:48;91455.78;;;20.71;66.65
39455;BME280;25155;41.890;23.446;2022-08-21T07:57:15;91463.22;;;20.66;65.33
39455;BME280;25155;41.890;23.446;2022-08-21T07:59:43;91458.66;;;20.66;66.41
39455;BME280;25155;41.890;23.446;2022-08-21T08:02:21;91458.09;;;20.60;65.21
39455;BME280;25155;41.890;23.446;2022-08-21T08:04:49;91452.47;;;20.62;65.07
39455;BME280;25155;41.890;23.446;2022-08-21T08:07:16;91444.66;;;20.53;66.09
39455;BME280;25155;41.890;23.446;2022-08-21T08:09:46;91452.25;;;20.55;65.83
39455;BME280;25155;41.890;23.446;2022-08-21T08:12:13;91443.75;;;20.61;66.40
39455;BME280;25155;41.890;23.446;2022-08-21T08:14:40;91447.84;;;20.71;66.39
39455;BME280;25155;41.890;23.446;2022-08-21T08:17:11;91442.38;;;20.80;65.82
39455;BME280;25155;41.890;23.446;2022-08-21T08:19:40;91456.38;;;20.93;66.09
39455;BME280;25155;41.890;23.446;2022-08-21T08:22:19;91442.94;;;21.01;66.10
39455;BME280;25155;41.890;23.446;2022-08-21T08:24:48;91447.59;;;21.05;65.60
39455;BME280;25155;41.890;23.446;2022-08-21T08:27:31;91444.75;;;20.97;65.22
39455;BME280;25155;41.890;23.446;2022-08-21T08:30:02;91436.97;;;21.05;65.33
39455;BME280;25155;41.890;23.446;2022-08-21T08:32:30;91439.91;;;21.15;65.76
39455;BME280;25155;41.890;23.446;2022-08-21T08:34:58;91427.44;;;21.16;65.52
39455;BME280;25155;41.890;23.446;2022-08-21T08:37:26;91437.09;;;21.24;65.48
39455;BME280;25155;41.890;23.446;2022-08-21T08:39:55;91439.06;;;21.27;65.11
39455;BME280;25155;41.890;23.446;2022-08-21T08:42:27;91432.22;;;21.26;64.76
39455;BME280;25155;41.890;23.446;2022-08-21T08:45:00;91436.75;;;21.26;65.26
39455;BME280;25155;41.890;23.446;2022-08-21T08:47:31;91439.66;;;21.20;65.31
39455;BME280;25155;41.890;23.446;2022-08-21T08:50:03;91432.22;;;21.10;65.95
39455;BME280;25155;41.890;23.446;2022-08-21T08:52:33;91429.66;;;21.14;65.95
39455;BME280;25155;41.890;23.446;2022-08-21T08:55:09;91427.28;;;20.80;66.69
39455;BME280;25155;41.890;23.446;2022-08-21T08:57:42;91426.28;;;21.01;66.42
39455;BME280;25155;41.890;23.446;2022-08-21T09:00:13;91429.03;;;21.05;65.97
39455;BME280;25155;41.890;23.446;2022-08-21T09:02:43;91428.25;;;21.04;66.13
39455;BME280;25155;41.890;23.446;2022-08-21T09:05:22;91421.84;;;21.05;65.55
39455;BME280;25155;41.890;23.446;2022-08-21T09:08:00;91422.63;;;21.06;66.19
39455;BME280;25155;41.890;23.446;2022-08-21T09:10:41;91420.97;;;21.01;66.21
39455;BME280;25155;41.890;23.446;2022-08-21T09:13:21;91415.78;;;21.05;66.58
39455;BME280;25155;41.890;23.446;2022-08-21T09:15:58;91412.03;;;21.06;66.34
39455;BME280;25155;41.890;23.446;2022-08-21T09:18:38;91415.44;;;21.06;66.71
39455;BME280;25155;41.890;23.446;2022-08-21T09:21:16;91413.44;;;21.03;67.38
39455;BME280;25155;41.890;23.446;2022-08-21T09:24:02;91407.81;;;20.89;66.91
39455;BME280;25155;41.890;23.446;2022-08-21T09:26:40;91410.09;;;20.90;67.83
39455;BME280;25155;41.890;23.446;2022-08-21T09:29:12;91404.69;;;20.87;67.94
39455;BME280;25155;41.890;23.446;2022-08-21T09:31:39;91404.22;;;20.97;67.26
39455;BME280;25155;41.890;23.446;2022-08-21T09:34:10;91399.53;;;21.06;67.46
39455;BME280;25155;41.890;23.446;2022-08-21T09:36:42;91398.59;;;21.14;68.50
39455;BME280;25155;41.890;23.446;2022-08-21T09:39:12;91406.13;;;21.12;67.42
39455;BME280;25155;41.890;23.446;2022-08-21T09:41:42;91394.16;;;21.18;67.42
39455;BME280;25155;41.890;23.446;2022-08-21T09:44:09;91398.53;;;21.27;68.57
39455;BME280;25155;41.890;23.446;2022-08-21T09:46:36;91397.41;;;21.28;68.59
39455;BME280;25155;41.890;23.446;2022-08-21T09:49:04;91401.69;;;21.32;67.89
39455;BME280;25155;41.890;23.446;2022-08-21T09:51:34;91377.31;;;21.27;67.04
39455;BME280;25155;41.890;23.446;2022-08-21T09:54:15;91386.47;;;21.45;66.84
39455;BME280;25155;41.890;23.446;2022-08-21T09:56:56;91384.28;;;21.47;66.89
39455;BME280;25155;41.890;23.446;2022-08-21T09:59:49;91374.84;;;21.66;66.52
39455;BME280;25155;41.890;23.446;2022-08-21T10:02:25;91364.47;;;21.77;67.48
39455;BME280;25155;41.890;23.446;2022-08-21T10:04:55;91383.31;;;22.07;66.91
39455;BME280;25155;41.890;23.446;2022-08-21T10:07:25;91378.59;;;22.16;66.28
39455;BME280;25155;41.890;23.446;2022-08-21T10:10:02;91381.78;;;22.06;65.75
39455;BME280;25155;41.890;23.446;2022-08-21T10:12:40;91381.09;;;22.09;65.66
39455;BME280;25155;41.890;23.446;2022-08-21T10:18:03;91372.13;;;21.98;65.17
39455;BME280;25155;41.890;23.446;2022-08-21T10:20:40;91380.25;;;22.05;64.78
39455;BME280;25155;41.890;23.446;2022-08-21T10:23:20;91385.22;;;22.06;64.53
39455;BME280;25155;41.890;23.446;2022-08-21T10:25:58;91389.47;;;22.11;64.81
39455;BME280;25155;41.890;23.446;2022-08-21T10:28:34;91396.69;;;22.10;65.15
39455;BME280;25155;41.890;23.446;2022-08-21T10:31:12;91383.31;;;22.07;64.80
39455;BME280;25155;41.890;23.446;2022-08-21T10:33:45;91384.94;;;22.11;63.88
39455;BME280;25155;41.890;23.446;2022-08-21T10:36:17;91389.56;;;22.15;64.77
39455;BME280;25155;41.890;23.446;2022-08-21T10:38:55;91394.09;;;22.14;64.74
39455;BME280;25155;41.890;23.446;2022-08-21T10:41:37;91383.41;;;22.10;64.92
39455;BME280;25155;41.890;23.446;2022-08-21T10:44:18;91372.09;;;22.14;64.79
39455;BME280;25155;41.890;23.446;2022-08-21T10:46:54;91367.13;;;22.12;65.11
39455;BME280;25155;41.890;23.446;2022-08-21T10:49:34;91371.66;;;22.11;64.25
39455;BME280;25155;41.890;23.446;2022-08-21T10:52:28;91381.00;;;22.05;64.70
39455;BME280;25155;41.890;23.446;2022-08-21T10:55:02;91383.19;;;22.00;65.11
39455;BME280;25155;41.890;23.446;2022-08-21T10:57:38;91384.88;;;22.08;65.80
39455;BME280;25155;41.890;23.446;2022-08-21T11:00:13;91382.97;;;22.08;65.81
39455;BME280;25155;41.890;23.446;2022-08-21T11:02:47;91376.47;;;22.06;66.08
39455;BME280;25155;41.890;23.446;2022-08-21T11:05:20;91371.94;;;22.06;66.20
39455;BME280;25155;41.890;23.446;2022-08-21T11:07:53;91366.63;;;22.06;65.71
39455;BME280;25155;41.890;23.446;2022-08-21T11:10:24;91376.66;;;21.97;67.65
39455;BME280;25155;41.890;23.446;2022-08-21T11:12:54;91373.06;;;21.89;67.70
39455;BME280;25155;41.890;23.446;2022-08-21T11:15:31;91369.00;;;21.76;68.24
39455;BME280;25155;41.890;23.446;2022-08-21T11:18:12;91373.03;;;21.70;68.82
39455;BME280;25155;41.890;23.446;2022-08-21T11:20:48;91364.81;;;21.59;68.46
39455;BME280;25155;41.890;23.446;2022-08-21T11:23:23;91355.41;;;21.62;67.73
39455;BME280;25155;41.890;23.446;2022-08-21T11:25:55;91352.78;;;21.62;67.57
39455;BME280;25155;41.890;23.446;2022-08-21T11:28:28;91364.63;;;21.68;67.67
39455;BME280;25155;41.890;23.446;2022-08-21T11:31:06;91360.81;;;21.49;68.97
39455;BME280;25155;41.890;23.446;2022-08-21T11:33:51;91372.66;;;21.08;70.75
39455;BME280;25155;41.890;23.446;2022-08-21T11:36:31;91378.47;;;21.13;71.33
39455;BME280;25155;41.890;23.446;2022-08-21T11:39:08;91384.53;;;20.98;71.76
39455;BME280;25155;41.890;23.446;2022-08-21T11:41:43;91380.00;;;20.82;71.71
39455;BME280;25155;41.890;23.446;2022-08-21T11:44:20;91383.50;;;20.87;71.05
39455;BME280;25155;41.890;23.446;2022-08-21T11:46:59;91384.63;;;20.86;71.01
39455;BME280;25155;41.890;23.446;2022-08-21T11:49:38;91389.38;;;20.80;71.56
39455;BME280;25155;41.890;23.446;2022-08-21T11:52:15;91395.28;;;20.61;72.93
39455;BME280;25155;41.890;23.446;2022-08-21T11:54:46;91392.25;;;20.46;74.37
39455;BME280;25155;41.890;23.446;2022-08-21T11:57:20;91387.28;;;20.45;73.99
39455;BME280;25155;41.890;23.446;2022-08-21T11:59:53;91382.22;;;20.40;74.11
39455;BME280;25155;41.890;23.446;2022-08-21T12:02:28;91385.22;;;20.38;74.22
39455;BME280;25155;41.890;23.446;2022-08-21T12:05:00;91370.88;;;20.39;74.25
39455;BME280;25155;41.890;23.446;2022-08-21T12:07:33;91366.44;;;20.43;73.93
39455;BME280;25155;41.890;23.446;2022-08-21T12:10:05;91365.09;;;20.50;72.95
39455;BME280;25155;41.890;23.446;2022-08-21T12:12:34;91367.59;;;20.58;72.96
39455;BME280;25155;41.890;23.446;2022-08-21T12:15:27;91370.25;;;20.58;72.23
39455;BME280;25155;41.890;23.446;2022-08-21T12:17:59;91372.78;;;20.67;72.24
39455;BME280;25155;41.890;23.446;2022-08-21T12:20:40;91367.91;;;20.69;72.31
39455;BME280;25155;41.890;23.446;2022-08-21T12:23:25;91369.00;;;20.68;72.36
39455;BME280;25155;41.890;23.446;2022-08-21T12:26:03;91374.41;;;20.72;72.54
39455;BME280;25155;41.890;23.446;2022-08-21T12:28:31;91376.47;;;20.78;72.48
39455;BME280;25155;41.890;23.446;2022-08-21T12:30:58;91380.66;;;20.79;73.22
39455;BME280;25155;41.890;23.446;2022-08-21T12:33:29;91380.91;;;20.74;73.04
39455;BME280;25155;41.890;23.446;2022-08-21T12:36:04;91383.13;;;20.72;72.79
39455;BME280;25155;41.890;23.446;2022-08-21T12:38:46;91380.03;;;20.70;73.39
39455;BME280;25155;41.890;23.446;2022-08-21T12:41:18;91374.50;;;20.75;73.12
39455;BME280;25155;41.890;23.446;2022-08-21T12:43:52;91365.19;;;20.81;72.81
39455;BME280;25155;41.890;23.446;2022-08-21T12:46:34;91364.84;;;20.83;72.91
39455;BME280;25155;41.890;23.446;2022-08-21T12:49:06;91364.84;;;20.55;73.94
39455;BME280;25155;41.890;23.446;2022-08-21T12:51:48;91360.81;;;20.73;74.12
39455;BME280;25155;41.890;23.446;2022-08-21T12:54:24;91365.19;;;20.81;74.17
39455;BME280;25155;41.890;23.446;2022-08-21T12:56:57;91361.34;;;20.79;74.88
39455;BME280;25155;41.890;23.446;2022-08-21T12:59:25;91380.25;;;20.77;74.31
39455;BME280;25155;41.890;23.446;2022-08-21T13:01:54;91382.59;;;20.67;75.39
39455;BME280;25155;41.890;23.446;2022-08-21T13:04:33;91387.00;;;20.62;75.83
39455;BME280;25155;41.890;23.446;2022-08-21T13:07:05;91380.31;;;20.53;75.46
39455;BME280;25155;41.890;23.446;2022-08-21T13:09:47;91373.47;;;20.52;76.20
39455;BME280;25155;41.890;23.446;2022-08-21T13:12:16;91379.78;;;20.47;75.72